createdAt,value
2016-07-11T13:48:42.303Z,33.72
2016-07-11T13:49:19.501Z,33.5
2016-07-11T13:49:51.205Z,33.26
2016-07-11T13:56:00.045Z,31.7
2016-07-11T13:56:37.475Z,31.44
2016-07-11T14:06:44.287Z,33.03
2016-07-11T14:07:49.121Z,33.38
2016-07-11T14:08:38.524Z,33.7
2016-07-11T14:09:45.279Z,33.89
2016-07-11T14:10:48.929Z,34.06
2016-07-11T14:11:40.225Z,34.38
2016-07-11T14:12:44.362Z,34.51
2016-07-11T14:13:40.831Z,34.55
2016-07-11T14:14:37.560Z,34.75
2016-07-11T14:15:48.594Z,34.81
2016-07-11T14:16:37.815Z,34.93
2016-07-11T14:17:39.355Z,35.05
2016-07-11T14:18:40.610Z,35.19
2016-07-11T14:19:38.677Z,35.26
2016-07-11T14:20:42.210Z,35.42
2016-07-11T14:21:42.055Z,35.49
2016-07-11T14:22:37.714Z,35.57
2016-07-11T14:23:37.357Z,35.54
2016-07-11T14:24:37.481Z,35.6
2016-07-11T14:25:39.614Z,35.66
2016-07-11T14:26:37.347Z,35.71
2016-07-11T14:27:37.684Z,35.79
2016-07-11T14:28:40.670Z,35.87
2016-07-11T14:29:37.528Z,35.9
2016-07-11T14:30:46.863Z,35.98
2016-07-11T14:31:46.293Z,36.08
2016-07-11T14:32:47.029Z,35.98
2016-07-11T14:33:47.218Z,36.13
2016-07-11T14:34:46.410Z,36.14
2016-07-11T14:35:45.810Z,35.98
2016-07-11T14:37:48.358Z,36.18
2016-07-11T14:38:48.649Z,36.28
2016-07-11T14:39:49.105Z,36.17
2016-07-11T14:40:49.115Z,36.22
2016-07-11T14:41:50.817Z,36.25
2016-07-11T14:42:48.694Z,36.25
2016-07-11T14:43:52.332Z,36.26
2016-07-11T14:44:48.744Z,36.28
2016-07-11T14:45:48.725Z,36.26
2016-07-11T14:46:48.786Z,36.31
2016-07-11T14:47:48.798Z,36.28
2016-07-11T14:48:48.880Z,36.29
2016-07-11T14:49:49.607Z,36.31
2016-07-11T14:50:48.838Z,36.35
2016-07-11T14:51:49.208Z,36.35
2016-07-11T14:52:49.570Z,36.38
2016-07-11T14:53:48.773Z,36.36
2016-07-11T14:54:48.889Z,36.39
2016-07-11T14:55:48.920Z,36.39
2016-07-11T14:56:48.916Z,36.43
2016-07-11T14:57:48.868Z,36.43
2016-07-11T14:58:48.897Z,36.22
2016-07-11T14:59:48.959Z,36.29
2016-07-11T15:00:49.614Z,36.25
2016-07-11T15:01:48.978Z,36.25
2016-07-11T15:02:49.019Z,36.33
2016-07-11T15:03:49.051Z,36.22
2016-07-11T15:04:49.022Z,36.32
2016-07-11T15:05:49.761Z,36.22
2016-07-11T15:06:49.089Z,36.09
2016-07-11T15:07:49.082Z,36.13
2016-07-11T15:08:49.074Z,36.08
2016-07-11T15:09:49.080Z,36.11
2016-07-11T15:10:49.121Z,36.05
2016-07-11T15:11:49.056Z,36.09
2016-07-11T15:12:49.023Z,36.24
2016-07-11T15:13:49.182Z,36.18
2016-07-11T15:14:49.859Z,36.24
2016-07-11T15:15:49.170Z,36.14
2016-07-11T15:16:49.940Z,36.25
2016-07-11T15:17:49.210Z,36.25
2016-07-11T15:18:49.224Z,36.26
2016-07-11T15:19:49.191Z,36.18
2016-07-11T15:20:49.409Z,36.22
2016-07-11T15:21:49.216Z,36.16
2016-07-11T15:22:49.553Z,36.11
2016-07-11T15:23:49.297Z,36.17
2016-07-11T15:24:50.053Z,36.22
2016-07-11T15:25:49.225Z,36.18
2016-07-11T15:26:49.341Z,36.24
2016-07-11T15:27:50.076Z,36.24
2016-07-11T15:28:49.254Z,36.24
2016-07-11T15:29:49.343Z,36.11
2016-07-11T15:30:50.063Z,36.06
2016-07-11T15:31:50.122Z,36.13
2016-07-11T15:32:49.408Z,36.05
2016-07-11T15:33:49.406Z,36.11
2016-07-11T15:34:49.455Z,36.05
2016-07-11T15:35:49.466Z,36.05
2016-07-11T15:36:49.437Z,36.03
2016-07-11T15:37:49.470Z,36.05
2016-07-11T15:38:49.462Z,36.06
2016-07-11T15:39:49.477Z,36.03
2016-07-11T15:40:49.490Z,36.05
2016-07-11T15:41:49.454Z,36.06
2016-07-11T15:42:49.539Z,36.03
2016-07-11T15:43:49.531Z,35.93
2016-07-11T15:44:49.546Z,35.97
2016-07-11T15:45:50.257Z,35.93
2016-07-11T15:46:51.064Z,35.98
2016-07-11T15:47:49.604Z,36.01
2016-07-11T15:48:49.610Z,35.93
2016-07-11T15:49:50.327Z,35.9
2016-07-11T15:50:50.405Z,35.86
2016-07-11T15:51:49.657Z,35.84
2016-07-11T15:52:49.640Z,35.82
2016-07-11T15:53:49.635Z,35.82
2016-07-11T15:54:49.834Z,35.84
2016-07-11T15:55:49.957Z,35.75
2016-07-11T15:56:50.080Z,35.71
2016-07-11T15:57:50.160Z,35.68
2016-07-11T15:58:50.063Z,35.69
2016-07-11T15:59:50.143Z,35.74
2016-07-11T16:00:50.099Z,35.71
2016-07-11T16:01:50.072Z,35.69
2016-07-11T16:02:50.847Z,35.66
2016-07-11T16:03:50.676Z,35.68
2016-07-11T16:04:50.358Z,35.63
2016-07-11T16:05:50.318Z,35.64
2016-07-11T16:06:49.803Z,35.64
2016-07-11T17:24:29.757Z,33.31
2016-07-11T17:25:29.690Z,33.32
2016-07-11T17:26:29.819Z,33.28
2016-07-11T17:27:29.668Z,33.23
2016-07-11T17:28:35.178Z,33.23
2016-07-11T17:29:32.074Z,33.19
2016-07-11T17:30:31.884Z,33.26
2016-07-11T17:31:29.918Z,33.19
2016-07-11T17:32:29.677Z,33.19
2016-07-11T17:33:29.724Z,33.2
2016-07-11T17:34:29.690Z,33.13
2016-07-11T17:35:30.075Z,33.09
2016-07-11T17:36:30.315Z,33.15
2016-07-11T17:37:30.224Z,33.03
2016-07-11T17:38:30.017Z,33.13
2016-07-11T17:39:30.194Z,33.05
2016-07-11T17:40:30.361Z,33.13
2016-07-11T17:41:30.484Z,33.22
2016-07-11T17:42:30.039Z,33.16
2016-07-11T17:43:30.362Z,33.04
2016-07-11T17:44:31.909Z,33.12
2016-07-11T17:45:30.355Z,33.19
2016-07-11T17:46:31.160Z,33.16
2016-07-11T17:47:30.200Z,33.1
2016-07-11T17:48:30.321Z,33.15
2016-07-11T17:49:30.980Z,33.03
2016-07-11T17:50:30.525Z,33.08
2016-07-11T17:51:30.363Z,33.01
2016-07-11T17:52:30.400Z,33.04
2016-07-11T17:53:31.242Z,33.08
2016-07-11T17:54:30.307Z,33.08
2016-07-11T17:55:30.432Z,32.98
2016-07-11T17:56:30.548Z,33.09
2016-07-11T17:57:30.439Z,33.05
2016-07-11T17:58:30.329Z,33.01
2016-07-11T17:59:30.554Z,32.97
2016-07-11T18:00:30.521Z,32.95
2016-07-11T18:01:30.466Z,32.93
2016-07-11T18:02:30.110Z,32.93
2016-07-11T18:03:30.419Z,32.93
2016-07-11T18:04:30.465Z,32.88
2016-07-11T18:05:31.287Z,32.9
2016-07-11T18:06:31.268Z,32.81
2016-07-11T18:07:30.569Z,32.81
2016-07-11T18:08:30.605Z,32.86
2016-07-11T18:09:30.218Z,32.75
2016-07-11T18:10:30.487Z,32.82
2016-07-11T18:11:30.891Z,32.81
2016-07-11T18:12:30.710Z,32.61
2016-07-11T18:13:31.410Z,32.68
2016-07-11T18:14:30.595Z,32.61
2016-07-11T18:15:36.927Z,32.68
2016-07-11T18:16:36.303Z,32.64
2016-07-11T18:17:32.298Z,32.54
2016-07-11T18:18:32.727Z,32.56
2016-07-11T18:19:30.675Z,32.56
2016-07-11T18:20:31.858Z,32.53
2016-07-11T18:21:32.635Z,32.6
2016-07-11T18:22:31.510Z,32.48
2016-07-11T18:23:30.496Z,32.44
2016-07-11T18:24:30.405Z,32.42
2016-07-11T18:25:30.773Z,32.46
2016-07-11T18:26:32.005Z,32.38
2016-07-11T18:27:31.543Z,32.39
2016-07-11T18:28:30.624Z,32.37
2016-07-11T18:29:31.702Z,32.38
2016-07-11T18:30:30.585Z,32.3
2016-07-11T18:31:31.637Z,32.37
2016-07-11T18:32:30.289Z,32.24
2016-07-11T18:33:31.269Z,32.23
2016-07-11T18:34:31.613Z,32.22
2016-07-11T18:35:30.440Z,32.17
2016-07-11T18:36:34.324Z,32.19
2016-07-11T18:37:30.430Z,32.09
2016-07-11T18:38:31.100Z,32.15
2016-07-11T18:39:32.137Z,32.09
2016-07-11T18:40:31.566Z,32.02
2016-07-11T18:41:30.435Z,32.07
2016-07-11T18:42:30.648Z,32.01
2016-07-11T18:43:30.406Z,31.97
2016-07-11T18:44:30.366Z,31.92
2016-07-11T18:45:30.472Z,32.08
2016-07-11T18:46:30.489Z,31.98
2016-07-11T18:47:30.480Z,31.92
2016-07-11T18:48:30.468Z,31.78
2016-07-11T18:49:30.523Z,31.78
2016-07-11T18:50:30.678Z,31.77
2016-07-11T18:51:30.515Z,31.79
2016-07-11T18:52:30.587Z,31.77
2016-07-11T18:53:31.322Z,31.74
2016-07-11T18:54:30.551Z,31.78
2016-07-11T18:55:30.584Z,31.74
2016-07-11T18:56:31.299Z,31.69
2016-07-11T18:57:30.582Z,31.78
2016-07-11T18:58:30.587Z,31.69
2016-07-11T18:59:30.601Z,31.78
2016-07-11T19:00:30.639Z,31.63
2016-07-11T19:01:30.627Z,31.63
2016-07-11T19:02:30.632Z,31.64
2016-07-11T19:03:30.622Z,31.62
2016-07-11T19:04:30.685Z,31.6
2016-07-11T19:05:30.704Z,31.59
2016-07-11T19:06:30.728Z,31.59
2016-07-11T19:07:31.428Z,31.54
2016-07-11T19:08:30.750Z,31.45
2016-07-11T19:09:30.629Z,31.48
2016-07-11T19:10:30.628Z,31.48
2016-07-11T19:11:30.707Z,31.45
2016-07-11T19:12:31.501Z,31.41
2016-07-11T19:13:30.740Z,31.32
2016-07-11T19:14:30.791Z,31.32
2016-07-11T19:15:30.822Z,31.3
2016-07-11T19:16:30.809Z,31.26
2016-07-11T19:17:30.771Z,31.22
2016-07-11T19:18:30.680Z,31.26
2016-07-11T19:19:30.813Z,31.25
2016-07-11T19:20:30.806Z,31.22
2016-07-11T19:21:30.841Z,31.11
2016-07-11T19:22:30.848Z,31.1
2016-07-11T19:23:31.619Z,31.07
2016-07-11T19:24:31.631Z,30.95
2016-07-11T19:25:31.054Z,31.07
2016-07-11T19:26:30.867Z,31.08
2016-07-11T19:27:30.897Z,30.96
2016-07-11T19:28:30.920Z,30.93
2016-07-11T19:29:30.870Z,30.93
2016-07-11T19:30:30.953Z,30.99
2016-07-11T19:31:30.980Z,31.08
2016-07-11T19:32:30.972Z,30.96
2016-07-11T19:33:30.984Z,30.93
2016-07-11T19:34:30.998Z,30.95
2016-07-11T19:35:30.981Z,30.89
2016-07-11T19:36:31.010Z,30.81
2016-07-11T19:37:31.001Z,30.93
2016-07-11T19:38:32.482Z,30.95
2016-07-11T19:39:31.054Z,30.77
2016-07-11T19:40:31.072Z,30.81
2016-07-11T19:41:31.042Z,30.83
2016-07-11T19:42:31.094Z,30.81
2016-07-11T19:43:31.060Z,30.74
2016-07-11T19:44:31.797Z,30.74
2016-07-11T19:45:31.872Z,30.76
2016-07-11T19:46:31.142Z,30.73
2016-07-11T19:47:31.137Z,30.76
2016-07-11T19:48:31.118Z,30.77
2016-07-11T19:49:31.169Z,30.65
2016-07-11T19:50:31.154Z,30.73
2016-07-11T19:51:31.162Z,30.74
2016-07-11T19:52:31.207Z,30.71
2016-07-11T19:53:31.111Z,30.58
2016-07-11T19:54:31.886Z,30.61
2016-07-11T19:55:31.184Z,30.63
2016-07-11T19:56:31.213Z,30.63
2016-07-11T19:57:31.175Z,30.55
2016-07-11T19:58:31.240Z,30.55
2016-07-11T19:59:31.200Z,30.52
2016-07-11T20:00:31.254Z,30.54
2016-07-11T20:01:31.375Z,30.51
2016-07-11T20:02:31.253Z,30.51
2016-07-11T20:03:32.026Z,30.48
2016-07-11T20:04:31.258Z,30.49
2016-07-11T20:05:31.262Z,30.49
2016-07-11T20:06:31.296Z,30.38
2016-07-11T20:07:31.304Z,30.44
2016-07-11T20:08:31.306Z,30.43
2016-07-11T20:09:31.243Z,30.43
2016-07-11T20:10:31.368Z,30.33
2016-07-11T20:11:31.368Z,30.35
2016-07-11T20:12:32.115Z,30.32
2016-07-11T20:13:32.102Z,30.51
2016-07-11T20:14:31.422Z,30.38
2016-07-11T20:15:32.109Z,30.46
2016-07-11T20:16:31.392Z,30.39
2016-07-11T20:17:31.429Z,30.27
2016-07-11T20:18:31.416Z,30.27
2016-07-11T20:19:31.466Z,30.31
2016-07-11T20:20:31.454Z,30.26
2016-07-11T20:21:31.425Z,30.36
2016-07-11T20:22:31.455Z,30.23
2016-07-11T20:23:31.512Z,30.29
2016-07-11T20:24:31.423Z,30.31
2016-07-11T20:25:31.457Z,30.18
2016-07-11T20:26:31.518Z,30.18
2016-07-11T20:27:31.508Z,30.18
2016-07-11T20:28:31.557Z,30.13
2016-07-11T20:29:32.248Z,30.03
2016-07-11T20:30:31.532Z,30.1
2016-07-11T20:31:31.486Z,30.16
2016-07-11T20:32:32.548Z,30.13
2016-07-11T20:33:32.288Z,30.03
2016-07-11T20:34:31.554Z,30.02
2016-07-11T20:35:31.567Z,30.06
2016-07-11T20:36:31.593Z,29.99
2016-07-11T20:37:31.582Z,30.01
2016-07-11T20:38:31.589Z,30.02
2016-07-11T20:39:31.620Z,30.02
2016-07-11T20:40:32.379Z,29.95
2016-07-11T20:41:31.681Z,29.96
2016-07-11T20:42:31.679Z,29.95
2016-07-11T20:43:32.400Z,29.99
2016-07-11T20:44:31.690Z,29.9
2016-07-11T20:45:32.439Z,29.92
2016-07-11T20:46:32.390Z,29.95
2016-07-11T20:47:31.680Z,29.9
2016-07-11T20:48:31.711Z,29.94
2016-07-11T20:49:31.697Z,29.92
2016-07-11T20:50:31.682Z,29.92
2016-07-11T20:51:31.754Z,29.84
2016-07-11T20:52:31.887Z,29.9
2016-07-11T20:53:31.876Z,29.87
2016-07-11T20:54:32.547Z,29.73
2016-07-11T20:55:31.798Z,29.84
2016-07-11T20:56:31.830Z,29.8
2016-07-11T20:57:31.927Z,29.81
2016-07-11T20:58:31.836Z,29.74
2016-07-11T20:59:31.867Z,29.74
2016-07-11T21:00:32.581Z,29.74
2016-07-11T21:01:31.871Z,29.71
2016-07-11T21:02:31.837Z,29.8
2016-07-11T21:03:31.882Z,29.71
2016-07-11T21:04:31.893Z,29.73
2016-07-11T21:05:31.887Z,29.68
2016-07-11T21:06:32.019Z,29.68
2016-07-11T21:07:32.008Z,29.64
2016-07-11T21:08:31.947Z,29.71
2016-07-11T21:09:32.619Z,29.73
2016-07-11T21:10:33.383Z,29.68
